Time;durP1;ratioP1;P1;durP2;ratioP2;P2;SDS_P1;SDS_P2;PMS_P1;PMS_P2;Temp;Humidity;BMP_temperature;BMP_pressure;BME280_temperature;BME280_humidity;BME280_pressure;Samples;Min_cycle;Max_cycle;Signal;HPM_P1;HPM_P2
2022/01/23 00:00:07;;;;;;;24.23;12.32;;;3.70;99.90;;;;;;5091525;28;20268;-61
2022/01/23 00:02:34;;;;;;;24.05;12.80;;;3.70;99.90;;;;;;5091687;28;20697;-61
2022/01/23 00:05:06;;;;;;;23.02;12.05;;;3.70;99.90;;;;;;5091668;28;20654;-61
2022/01/23 00:07:33;;;;;;;25.55;11.98;;;3.80;99.90;;;;;;5093956;28;20184;-61
2022/01/23 00:10:00;;;;;;;21.30;11.60;;;3.80;99.90;;;;;;5095453;28;20171;-61
2022/01/23 00:12:28;;;;;;;24.10;11.65;;;3.80;99.90;;;;;;5095683;28;20183;-61
2022/01/23 00:17:38;;;;;;;27.10;12.98;;;3.90;99.90;;;;;;5095598;28;20327;-61
2022/01/23 00:20:07;;;;;;;25.67;12.30;;;4.00;99.90;;;;;;5093864;28;20700;-61
2022/01/23 00:22:39;;;;;;;17.77;10.35;;;4.00;99.90;;;;;;5095021;28;20211;-61
2022/01/23 00:30:35;;;;;;;23.00;11.63;;;4.00;99.90;;;;;;5094925;28;20266;-61
2022/01/23 00:33:04;;;;;;;25.75;11.68;;;4.00;99.90;;;;;;5094827;28;20617;-61
2022/01/23 00:35:31;;;;;;;25.27;11.45;;;4.00;99.90;;;;;;5094962;28;20175;-61
2022/01/23 00:37:57;;;;;;;22.63;11.45;;;3.90;99.90;;;;;;5095435;28;20180;-61
2022/01/23 00:40:23;;;;;;;23.20;11.60;;;3.90;99.90;;;;;;5094692;28;20650;-61
2022/01/23 00:42:49;;;;;;;24.13;11.23;;;3.90;99.90;;;;;;5093565;28;20689;-61
2022/01/23 00:48:08;;;;;;;28.45;12.52;;;3.80;99.90;;;;;;5091648;28;20227;-61
2022/01/23 00:50:42;;;;;;;24.45;12.07;;;3.90;99.90;;;;;;5094489;28;20584;-61
2022/01/23 00:53:10;;;;;;;22.17;11.75;;;3.90;99.90;;;;;;5094391;28;20183;-61
2022/01/23 00:55:41;;;;;;;24.55;12.02;;;3.90;99.90;;;;;;5095322;28;20316;-61
2022/01/23 00:58:07;;;;;;;23.02;12.18;;;3.90;99.90;;;;;;5093886;28;20188;-61
2022/01/23 01:00:33;;;;;;;23.40;12.32;;;3.90;99.90;;;;;;5093963;28;20319;-61
2022/01/23 01:02:59;;;;;;;25.58;12.98;;;4.00;99.90;;;;;;5094546;28;20594;-61
2022/01/23 01:05:28;;;;;;;25.73;11.90;;;4.00;99.90;;;;;;5093368;28;20183;-61
2022/01/23 01:07:55;;;;;;;23.15;11.60;;;4.00;99.90;;;;;;5094135;28;20543;-61
2022/01/23 01:10:26;;;;;;;25.73;12.68;;;4.00;99.90;;;;;;5094749;28;20265;-61
2022/01/23 01:12:57;;;;;;;22.85;11.52;;;4.00;99.90;;;;;;5094490;28;20320;-61
2022/01/23 01:34:08;;;;;;;21.02;11.68;;;4.10;99.90;;;;;;5094442;28;20631;-61
2022/01/23 01:39:00;;;;;;;25.20;12.25;;;4.10;99.90;;;;;;5093950;28;20229;-61
2022/01/23 01:41:26;;;;;;;19.70;11.18;;;4.10;99.90;;;;;;5093557;28;20178;-61
2022/01/23 01:43:53;;;;;;;21.05;11.57;;;4.10;99.90;;;;;;5093765;28;20184;-61
2022/01/23 01:46:19;;;;;;;22.92;12.13;;;4.10;99.90;;;;;;5093129;28;20191;-61
2022/01/23 01:48:45;;;;;;;22.77;12.23;;;4.10;99.90;;;;;;5092642;28;20267;-61
2022/01/23 01:51:16;;;;;;;22.45;11.75;;;4.10;99.90;;;;;;5093174;28;20588;-61
2022/01/23 01:53:51;;;;;;;28.08;11.80;;;4.10;99.90;;;;;;5093866;28;20194;-61
2022/01/23 01:56:17;;;;;;;26.15;12.63;;;4.10;99.90;;;;;;5093578;28;20626;-61
2022/01/23 02:09:19;;;;;;;51.70;20.77;;;4.10;99.90;;;;;;5092982;28;20253;-61
2022/01/23 02:17:55;;;;;;;25.05;12.93;;;4.10;99.90;;;;;;5022183;28;20243;-61
2022/01/23 02:55:48;;;;;;;21.88;11.13;;;4.10;99.90;;;;;;5092361;28;20210;-63
2022/01/23 02:58:20;;;;;;;21.30;10.90;;;4.10;99.90;;;;;;5092163;28;20187;-63
2022/01/23 03:00:59;;;;;;;21.50;11.07;;;4.10;99.90;;;;;;5091936;28;20216;-63
2022/01/23 03:03:25;;;;;;;23.45;11.25;;;4.10;99.90;;;;;;5092241;28;20543;-63
2022/01/23 03:14:39;;;;;;;24.98;12.57;;;4.10;99.90;;;;;;5091813;28;20180;-64
2022/01/23 03:25:16;;;;;;;22.73;11.32;;;4.10;99.90;;;;;;5091785;28;20241;-63
2022/01/23 03:30:34;;;;;;;27.08;12.00;;;4.10;99.90;;;;;;5089594;28;20225;-63
2022/01/23 03:32:59;;;;;;;20.92;11.07;;;4.10;99.90;;;;;;5092163;28;20176;-63
2022/01/23 03:35:25;;;;;;;23.27;11.73;;;4.10;99.90;;;;;;5091616;28;20655;-63
2022/01/23 03:37:51;;;;;;;20.38;10.73;;;4.10;99.90;;;;;;5092037;28;20237;-63
2022/01/23 03:40:17;;;;;;;27.20;12.15;;;4.10;99.90;;;;;;5091480;28;20191;-63
2022/01/23 03:42:45;;;;;;;28.15;12.35;;;4.20;99.90;;;;;;5094602;28;20282;-63
2022/01/23 03:50:33;;;;;;;24.25;11.45;;;4.20;99.90;;;;;;5095978;28;20179;-63
2022/01/23 03:52:58;;;;;;;24.45;10.63;;;4.20;99.90;;;;;;5096088;28;20259;-63
2022/01/23 03:55:24;;;;;;;24.27;12.13;;;4.20;99.90;;;;;;5095620;28;20200;-63
2022/01/23 03:57:49;;;;;;;30.35;12.13;;;4.20;99.90;;;;;;5095052;28;20212;-63
2022/01/23 04:00:17;;;;;;;24.77;11.55;;;4.20;99.90;;;;;;5095599;28;20220;-63
2022/01/23 04:02:43;;;;;;;22.25;11.48;;;4.20;99.90;;;;;;5095358;28;20211;-63
2022/01/23 04:05:09;;;;;;;24.50;12.32;;;4.20;99.90;;;;;;5095132;28;20579;-63
2022/01/23 04:07:36;;;;;;;27.40;12.55;;;4.20;99.90;;;;;;5094278;28;20178;-63
2022/01/23 04:10:02;;;;;;;25.48;12.75;;;4.20;99.90;;;;;;5095720;28;20172;-64
2022/01/23 04:12:49;;;;;;;64.53;24.92;;;4.20;99.90;;;;;;5086263;28;20187;-63
2022/01/23 04:15:37;;;;;;;71.32;28.13;;;4.20;99.90;;;;;;5094930;28;20184;-63
2022/01/23 04:21:15;;;;;;;43.08;18.83;;;4.20;99.90;;;;;;5073633;28;20184;-63
2022/01/23 04:31:46;;;;;;;37.67;17.08;;;4.20;99.90;;;;;;5083263;28;20237;-63
2022/01/23 04:34:36;;;;;;;28.05;14.38;;;4.20;99.90;;;;;;5095208;28;20184;-63
2022/01/23 05:01:24;;;;;;;29.00;13.15;;;4.10;99.90;;;;;;5094730;28;20729;-63
2022/01/23 05:06:24;;;;;;;25.80;13.30;;;4.00;99.90;;;;;;5094521;28;20172;-63
2022/01/23 05:08:51;;;;;;;26.45;12.77;;;4.00;99.90;;;;;;5094081;28;20176;-63
2022/01/23 05:11:17;;;;;;;27.00;13.10;;;4.00;99.90;;;;;;5094345;28;20183;-63
2022/01/23 05:13:43;;;;;;;24.17;12.70;;;4.10;99.90;;;;;;5093116;28;20180;-63
2022/01/23 05:16:10;;;;;;;25.85;12.65;;;4.10;99.90;;;;;;5094463;28;20510;-63
2022/01/23 05:18:36;;;;;;;26.02;12.77;;;4.10;99.90;;;;;;5094647;28;20244;-63
2022/01/23 05:23:48;;;;;;;28.92;12.55;;;4.10;99.90;;;;;;5094150;28;20786;-63
2022/01/23 05:26:13;;;;;;;22.80;12.50;;;4.00;99.90;;;;;;5094637;28;20201;-63
2022/01/23 05:28:39;;;;;;;25.75;13.02;;;4.00;99.90;;;;;;5093479;28;20241;-63
2022/01/23 05:31:04;;;;;;;23.38;12.93;;;4.00;99.90;;;;;;5092491;28;20172;-63
2022/01/23 05:33:30;;;;;;;25.65;12.75;;;4.00;99.90;;;;;;5094123;28;20229;-63
2022/01/23 05:35:56;;;;;;;23.95;12.30;;;4.00;99.90;;;;;;5093634;28;20183;-63
2022/01/23 05:38:21;;;;;;;24.80;12.20;;;4.00;99.90;;;;;;5093643;28;20180;-63
2022/01/23 05:40:55;;;;;;;26.42;13.32;;;4.00;99.90;;;;;;5092471;28;20243;-63
2022/01/23 05:43:20;;;;;;;25.70;12.52;;;4.00;99.90;;;;;;5092818;28;20820;-63
2022/01/23 05:45:46;;;;;;;25.95;12.73;;;4.00;99.90;;;;;;5092928;28;20271;-63
2022/01/23 05:48:12;;;;;;;25.13;12.27;;;4.00;99.90;;;;;;5092328;28;20182;-63
2022/01/23 05:50:38;;;;;;;24.42;12.18;;;4.00;99.90;;;;;;5093716;28;20511;-63
2022/01/23 05:53:03;;;;;;;27.83;13.20;;;4.00;99.90;;;;;;5091417;28;20307;-63
2022/01/23 05:55:29;;;;;;;24.60;12.02;;;4.00;99.90;;;;;;5093714;28;20591;-63
2022/01/23 05:57:54;;;;;;;24.23;12.15;;;4.00;99.90;;;;;;5093385;28;20636;-63
2022/01/23 06:00:20;;;;;;;21.70;11.65;;;4.00;99.90;;;;;;5093056;28;20748;-63
2022/01/23 06:02:46;;;;;;;24.00;12.35;;;4.00;99.90;;;;;;5093003;28;20218;-63
2022/01/23 06:05:11;;;;;;;27.05;12.88;;;4.00;99.90;;;;;;5092880;28;20196;-63
2022/01/23 06:07:37;;;;;;;26.92;12.57;;;3.90;99.90;;;;;;5093150;28;20311;-63
2022/01/23 06:10:05;;;;;;;27.90;12.70;;;3.90;99.90;;;;;;5092299;28;20267;-63
2022/01/23 06:12:30;;;;;;;27.20;12.68;;;3.90;99.90;;;;;;5092940;28;20180;-63
2022/01/23 06:14:56;;;;;;;26.45;13.02;;;3.90;99.90;;;;;;5092959;28;20230;-63
2022/01/23 06:17:21;;;;;;;23.80;11.82;;;4.00;99.90;;;;;;5092770;28;20199;-63
2022/01/23 06:19:47;;;;;;;24.50;12.20;;;4.00;99.90;;;;;;5093012;28;20867;-63
2022/01/23 06:22:14;;;;;;;26.83;12.82;;;3.90;99.90;;;;;;5092861;28;20227;-63
2022/01/23 06:24:46;;;;;;;23.65;12.25;;;3.90;99.90;;;;;;5092663;28;20187;-63
2022/01/23 06:27:12;;;;;;;23.80;12.18;;;3.90;99.90;;;;;;5092964;28;20204;-63
2022/01/23 06:29:38;;;;;;;25.20;12.38;;;3.80;99.90;;;;;;5093225;28;20219;-63
2022/01/23 06:32:04;;;;;;;24.50;11.65;;;3.80;99.90;;;;;;5092330;28;20295;-63
2022/01/23 06:34:30;;;;;;;24.23;12.13;;;3.90;99.90;;;;;;5092473;28;20172;-63
2022/01/23 06:36:57;;;;;;;24.50;11.57;;;3.90;99.90;;;;;;5092953;28;20271;-63
2022/01/23 06:39:24;;;;;;;25.58;12.80;;;3.90;99.90;;;;;;5092606;28;20180;-63
2022/01/23 06:41:49;;;;;;;26.90;12.20;;;3.90;99.90;;;;;;5092444;28;20212;-63
2022/01/23 06:44:15;;;;;;;23.20;12.07;;;3.90;99.90;;;;;;5093076;28;20184;-63
2022/01/23 06:46:41;;;;;;;25.85;12.65;;;3.90;99.90;;;;;;5090880;28;20183;-63
2022/01/23 06:49:07;;;;;;;25.27;11.98;;;3.90;99.90;;;;;;5092120;28;20265;-63
2022/01/23 06:51:33;;;;;;;25.58;12.73;;;3.90;99.90;;;;;;5092427;28;20194;-63
2022/01/23 06:53:58;;;;;;;25.42;12.27;;;3.80;99.90;;;;;;5092331;28;20188;-63
2022/01/23 06:56:24;;;;;;;24.77;12.75;;;3.80;99.90;;;;;;5092096;28;20192;-63
2022/01/23 06:58:50;;;;;;;27.58;13.82;;;3.80;99.90;;;;;;5092116;28;20176;-63
2022/01/23 07:01:15;;;;;;;22.80;12.38;;;3.90;99.90;;;;;;5090402;28;20679;-63
2022/01/23 07:03:41;;;;;;;24.58;12.25;;;3.90;99.90;;;;;;5092790;28;20216;-63
2022/01/23 07:06:07;;;;;;;25.83;12.60;;;3.90;99.90;;;;;;5091066;28;20176;-63
2022/01/23 07:08:32;;;;;;;24.38;12.45;;;3.90;99.90;;;;;;5092314;28;20223;-63
2022/01/23 07:10:59;;;;;;;25.38;12.82;;;3.90;99.90;;;;;;5092650;28;20180;-63
2022/01/23 07:13:25;;;;;;;24.10;12.05;;;3.90;99.90;;;;;;5092278;28;20229;-63
2022/01/23 07:15:51;;;;;;;23.42;12.60;;;3.90;99.90;;;;;;5091744;28;20176;-64
2022/01/23 07:18:18;;;;;;;26.55;13.48;;;3.90;99.90;;;;;;5092154;28;20214;-63
2022/01/23 07:20:45;;;;;;;24.98;12.10;;;3.90;99.90;;;;;;5091620;28;20176;-63
2022/01/23 07:23:11;;;;;;;26.48;12.15;;;3.90;99.90;;;;;;5092038;28;20204;-63
2022/01/23 07:25:37;;;;;;;24.42;13.13;;;3.90;99.90;;;;;;5092197;28;20263;-63
2022/01/23 07:28:05;;;;;;;26.02;13.00;;;4.00;99.90;;;;;;5091747;28;20191;-63
2022/01/23 07:30:38;;;;;;;27.00;12.70;;;4.00;99.90;;;;;;5091729;28;20220;-63
2022/01/23 07:33:04;;;;;;;23.65;12.35;;;4.00;99.90;;;;;;5089534;28;20418;-63
2022/01/23 07:35:30;;;;;;;25.15;12.13;;;4.00;99.90;;;;;;5091777;28;20179;-63
2022/01/23 07:37:56;;;;;;;23.90;11.68;;;4.00;99.90;;;;;;5091878;28;20180;-63
2022/01/23 07:40:21;;;;;;;24.95;12.93;;;4.00;99.90;;;;;;5091691;28;20528;-63
2022/01/23 07:42:47;;;;;;;23.40;12.43;;;4.10;99.90;;;;;;5091778;28;20292;-63
2022/01/23 07:45:12;;;;;;;26.23;12.70;;;4.10;99.90;;;;;;5091346;28;20180;-64
2022/01/23 07:47:38;;;;;;;24.70;12.30;;;4.10;99.90;;;;;;5091533;28;20675;-64
2022/01/23 07:50:06;;;;;;;30.20;15.45;;;4.10;99.90;;;;;;5092117;28;20323;-64
2022/01/23 07:52:35;;;;;;;26.55;13.15;;;4.10;99.90;;;;;;5091514;28;20211;-64
2022/01/23 07:55:05;;;;;;;26.35;13.57;;;4.10;99.90;;;;;;5091797;28;20223;-64
2022/01/23 07:57:31;;;;;;;29.67;15.45;;;4.10;99.90;;;;;;5091867;28;20596;-64
2022/01/23 07:59:57;;;;;;;27.83;15.25;;;4.20;99.90;;;;;;5091506;28;20294;-63
2022/01/23 08:02:23;;;;;;;23.40;13.55;;;4.20;99.90;;;;;;5091447;28;20211;-64
2022/01/23 08:04:48;;;;;;;27.15;13.02;;;4.20;99.90;;;;;;5092046;28;20259;-61
2022/01/23 08:07:47;;;;;;;26.60;14.02;;;4.20;99.90;;;;;;5090970;28;20176;-64
2022/01/23 08:10:08;;;;;;;25.88;12.55;;;4.30;99.90;;;;;;5087490;28;20677;-62
2022/01/23 08:12:34;;;;;;;30.45;12.68;;;4.30;99.90;;;;;;5091781;28;20663;-62
2022/01/23 08:15:03;;;;;;;26.80;12.95;;;4.30;99.90;;;;;;5092043;28;20172;-64
2022/01/23 08:17:28;;;;;;;28.27;13.15;;;4.30;99.90;;;;;;5090602;28;20512;-64
2022/01/23 08:19:56;;;;;;;26.05;12.65;;;4.30;99.90;;;;;;5091746;28;20183;-64
2022/01/23 08:22:23;;;;;;;26.83;12.80;;;4.40;99.90;;;;;;5091337;28;20667;-63
2022/01/23 08:24:49;;;;;;;30.08;15.07;;;4.40;99.90;;;;;;5091503;28;20172;-63
2022/01/23 08:27:15;;;;;;;26.35;13.55;;;4.40;99.90;;;;;;5091677;28;20639;-64
2022/01/23 08:29:41;;;;;;;23.30;11.60;;;4.40;99.90;;;;;;5095503;28;20357;-65
2022/01/23 08:32:07;;;;;;;23.77;11.98;;;4.50;99.90;;;;;;5094935;28;20176;-63
2022/01/23 08:34:34;;;;;;;23.33;11.82;;;4.50;99.90;;;;;;5095434;28;20195;-61
2022/01/23 08:37:00;;;;;;;21.73;11.85;;;4.50;99.90;;;;;;5094587;28;20210;-64
2022/01/23 08:39:26;;;;;;;23.00;12.05;;;4.50;99.90;;;;;;5094956;28;20246;-66
2022/01/23 08:41:52;;;;;;;24.33;13.00;;;4.50;99.90;;;;;;5093243;28;20690;-64
2022/01/23 08:44:24;;;;;;;23.25;12.10;;;4.50;99.90;;;;;;5095068;28;20222;-64
2022/01/23 08:46:50;;;;;;;23.60;12.27;;;4.60;99.90;;;;;;5094014;28;20172;-63
2022/01/23 08:49:17;;;;;;;24.15;12.25;;;4.60;99.90;;;;;;5094830;28;20172;-63
2022/01/23 08:51:44;;;;;;;26.15;12.45;;;4.60;99.90;;;;;;5094781;28;20241;-63
2022/01/23 08:54:10;;;;;;;22.45;11.82;;;4.60;99.90;;;;;;5094843;28;20184;-63
2022/01/23 08:56:36;;;;;;;25.60;12.93;;;4.70;99.90;;;;;;5094655;28;20298;-63
2022/01/23 08:59:01;;;;;;;26.08;12.63;;;4.70;99.90;;;;;;5094011;28;20263;-66
2022/01/23 09:01:28;;;;;;;25.13;13.50;;;4.70;99.90;;;;;;5090332;28;20306;-64
2022/01/23 09:03:54;;;;;;;29.30;13.82;;;4.80;99.90;;;;;;5094868;28;20226;-63
2022/01/23 09:06:20;;;;;;;30.00;14.18;;;4.80;99.90;;;;;;5094613;28;20184;-63
2022/01/23 09:08:46;;;;;;;24.38;13.52;;;4.80;99.90;;;;;;5094749;28;20188;-64
2022/01/23 09:12:00;;;;;;;28.40;14.43;;;4.80;99.90;;;;;;5094565;28;20229;-63
2022/01/23 09:14:12;;;;;;;26.25;15.02;;;4.90;99.90;;;;;;5090262;28;20535;-62
2022/01/23 09:16:41;;;;;;;30.02;14.70;;;4.90;99.90;;;;;;5094664;28;20245;-62
2022/01/23 09:19:07;;;;;;;27.38;14.80;;;5.00;99.90;;;;;;5094098;28;20203;-62
2022/01/23 09:21:33;;;;;;;26.75;14.82;;;5.10;99.90;;;;;;5094797;28;20265;-62
2022/01/23 09:23:59;;;;;;;24.10;13.65;;;5.20;99.90;;;;;;5093614;28;20188;-62
2022/01/23 09:26:25;;;;;;;25.70;13.50;;;5.20;99.90;;;;;;5093961;28;20196;-63
2022/01/23 09:28:54;;;;;;;24.45;12.88;;;5.30;99.90;;;;;;5093926;28;20190;-63
2022/01/23 09:31:45;;;;;;;23.75;12.57;;;5.50;99.90;;;;;;5092013;28;20237;-62
2022/01/23 09:34:11;;;;;;;22.13;11.93;;;5.50;99.90;;;;;;5092304;28;20640;-63
2022/01/23 09:36:36;;;;;;;24.98;12.63;;;5.60;99.90;;;;;;5092248;28;20267;-61
2022/01/23 09:39:03;;;;;;;26.15;12.18;;;5.70;99.90;;;;;;5093007;28;20180;-64
2022/01/23 09:41:31;;;;;;;29.60;14.02;;;5.70;99.90;;;;;;5093382;28;20218;-63
2022/01/23 09:44:00;;;;;;;39.42;20.70;;;5.80;99.90;;;;;;5093390;28;20674;-63
2022/01/23 09:46:25;;;;;;;25.67;14.30;;;5.90;99.90;;;;;;5094183;28;20184;-63
2022/01/23 09:48:52;;;;;;;24.65;12.93;;;5.90;99.90;;;;;;5093177;28;20182;-64
2022/01/23 09:51:20;;;;;;;22.20;11.95;;;6.10;99.90;;;;;;5093554;28;20180;-64
2022/01/23 09:53:47;;;;;;;22.02;12.25;;;6.10;99.90;;;;;;5093983;28;20673;-64
2022/01/23 09:56:14;;;;;;;23.83;13.32;;;6.10;99.90;;;;;;5093156;28;20176;-63
2022/01/23 09:58:40;;;;;;;27.08;13.65;;;6.10;99.90;;;;;;5093507;28;20187;-64
2022/01/23 10:01:06;;;;;;;24.17;13.25;;;6.10;99.90;;;;;;5080142;28;20217;-63
2022/01/23 10:03:32;;;;;;;24.10;13.85;;;6.20;99.90;;;;;;5093168;28;20212;-63
2022/01/23 10:05:57;;;;;;;26.23;12.98;;;6.20;99.90;;;;;;5093184;28;20172;-62
2022/01/23 10:08:26;;;;;;;25.73;13.50;;;6.20;99.90;;;;;;5093397;28;20279;-62
2022/01/23 10:10:53;;;;;;;25.00;12.70;;;6.30;99.90;;;;;;5091796;28;20188;-62
2022/01/23 10:13:28;;;;;;;24.88;13.52;;;6.40;99.90;;;;;;5089790;28;20176;-62
2022/01/23 10:15:54;;;;;;;23.77;13.18;;;6.50;99.90;;;;;;5092500;28;20230;-63
2022/01/23 10:18:20;;;;;;;27.90;14.73;;;6.70;99.90;;;;;;5091641;28;20181;-63
2022/01/23 10:20:46;;;;;;;41.58;22.15;;;6.70;99.90;;;;;;5093580;28;20268;-63
2022/01/23 10:23:14;;;;;;;48.95;24.38;;;6.80;99.90;;;;;;5093326;28;20210;-63
2022/01/23 10:25:41;;;;;;;29.02;15.63;;;6.90;99.90;;;;;;5093255;28;20184;-63
2022/01/23 10:28:12;;;;;;;29.67;15.43;;;6.90;99.90;;;;;;5093335;28;20183;-63
2022/01/23 10:30:40;;;;;;;25.48;14.00;;;7.00;99.90;;;;;;5092221;28;20856;-64
2022/01/23 10:33:07;;;;;;;26.58;14.10;;;7.10;99.90;;;;;;5090957;28;20705;-64
2022/01/23 10:35:34;;;;;;;47.80;22.27;;;7.10;99.90;;;;;;5092665;28;20255;-65
2022/01/23 10:38:13;;;;;;;43.72;20.98;;;7.10;99.90;;;;;;5092665;28;20184;-64
2022/01/23 10:40:48;;;;;;;30.83;16.85;;;7.20;99.90;;;;;;5092562;28;20172;-64
2022/01/23 10:48:39;;;;;;;28.00;13.75;;;7.30;99.90;;;;;;5092267;28;20206;-63
2022/01/23 10:51:23;;;;;;;25.67;14.98;;;7.40;99.90;;;;;;5092058;28;20172;-63
2022/01/23 10:54:10;;;;;;;24.58;13.57;;;7.40;99.90;;;;;;5092141;28;20639;-63
2022/01/23 10:57:03;;;;;;;23.52;13.40;;;7.40;99.90;;;;;;5092566;28;20662;-63
2022/01/23 10:59:45;;;;;;;25.80;13.73;;;7.40;99.90;;;;;;5091884;28;20212;-63
2022/01/23 11:02:13;;;;;;;24.85;12.85;;;7.40;99.90;;;;;;5090883;28;20212;-64
2022/01/23 11:05:00;;;;;;;28.00;14.02;;;7.40;99.90;;;;;;5091442;28;20179;-64
2022/01/23 11:07:27;;;;;;;24.40;13.15;;;7.50;99.90;;;;;;5091677;28;20187;-63
2022/01/23 11:10:06;;;;;;;26.55;13.52;;;7.50;99.90;;;;;;5090582;28;20229;-64
2022/01/23 11:18:15;;;;;;;29.88;16.63;;;7.60;99.90;;;;;;5082984;28;20791;-64
2022/01/23 11:20:43;;;;;;;30.30;15.55;;;7.70;99.90;;;;;;5092124;28;21038;-64
2022/01/23 11:23:17;;;;;;;28.20;13.88;;;7.70;99.90;;;;;;5091823;28;20207;-64
2022/01/23 11:25:55;;;;;;;28.10;14.73;;;7.80;99.90;;;;;;5091439;28;20654;-64
2022/01/23 11:28:28;;;;;;;24.33;13.50;;;7.90;99.90;;;;;;5091831;28;20212;-64
2022/01/23 11:30:54;;;;;;;25.55;13.30;;;7.90;99.90;;;;;;5091023;28;20696;-64
2022/01/23 11:33:20;;;;;;;26.60;12.60;;;7.90;99.90;;;;;;5089805;28;20180;-64
2022/01/23 11:35:47;;;;;;;21.85;12.18;;;7.90;99.90;;;;;;5091790;28;20176;-64
2022/01/23 11:38:19;;;;;;;21.05;12.30;;;8.00;99.90;;;;;;5091422;28;20191;-64
2022/01/23 11:54:48;;;;;;;22.08;12.07;;;8.00;99.90;;;;;;5089838;28;20202;-64
2022/01/23 11:57:33;;;;;;;25.08;12.88;;;8.10;99.90;;;;;;5090813;28;20172;-64
2022/01/23 12:00:03;;;;;;;22.35;11.23;;;8.10;99.90;;;;;;5090908;28;20220;-64
2022/01/23 12:02:35;;;;;;;22.35;12.20;;;8.00;99.90;;;;;;5092580;28;20222;-64
2022/01/23 12:05:10;;;;;;;21.75;12.98;;;8.00;99.90;;;;;;5094957;28;20172;-64
2022/01/23 12:07:37;;;;;;;23.23;12.75;;;7.90;99.90;;;;;;5095842;28;20270;-64
2022/01/23 12:10:36;;;;;;;23.70;13.60;;;7.90;99.90;;;;;;5095703;28;20225;-64
2022/01/23 12:16:20;;;;;;;24.55;13.23;;;7.80;99.90;;;;;;5095822;28;20168;-64
2022/01/23 12:16:25;;;;;;;26.17;14.73;;;7.70;99.90;;;;;;5092535;28;20252;-64
2022/01/23 12:19:09;;;;;;;25.50;14.25;;;7.60;99.90;;;;;;5095619;28;20589;-64
2022/01/23 12:21:37;;;;;;;24.48;13.65;;;7.60;99.90;;;;;;5095636;28;20545;-64
2022/01/23 12:24:05;;;;;;;25.27;13.38;;;7.60;99.90;;;;;;5095374;28;20247;-64
2022/01/23 12:26:31;;;;;;;34.70;16.58;;;7.60;99.90;;;;;;5095093;28;20226;-63
2022/01/23 12:29:12;;;;;;;32.25;16.60;;;7.60;99.90;;;;;;5095458;28;20670;-64
2022/01/23 12:31:38;;;;;;;26.02;13.27;;;8.00;99.90;;;;;;5095200;28;20589;-64
2022/01/23 12:34:04;;;;;;;24.25;13.25;;;8.10;99.90;;;;;;5095044;28;20547;-64
2022/01/23 12:36:32;;;;;;;23.30;12.85;;;8.10;99.90;;;;;;5095444;28;20176;-64
2022/01/23 12:39:17;;;;;;;25.73;13.32;;;8.10;99.90;;;;;;5095218;28;20180;-64
2022/01/23 12:41:51;;;;;;;20.77;12.35;;;8.00;99.90;;;;;;5095209;28;20258;-64
2022/01/23 12:44:22;;;;;;;23.67;13.38;;;7.90;99.90;;;;;;5094886;28;20255;-65
2022/01/23 12:47:03;;;;;;;23.05;13.02;;;7.70;99.90;;;;;;5095202;28;20179;-64
2022/01/23 12:49:50;;;;;;;28.27;14.25;;;7.60;99.90;;;;;;5094921;28;20172;-64
2022/01/23 12:52:19;;;;;;;25.05;13.90;;;7.40;99.90;;;;;;5094775;28;20183;-64
2022/01/23 12:54:56;;;;;;;27.38;13.65;;;7.30;99.90;;;;;;5094967;28;20338;-64
2022/01/23 12:57:40;;;;;;;24.85;12.20;;;7.10;99.90;;;;;;5094793;28;20206;-64
2022/01/23 13:00:23;;;;;;;22.20;13.25;;;7.00;99.90;;;;;;5092272;28;20243;-64
2022/01/23 13:02:51;;;;;;;30.13;14.63;;;7.00;99.90;;;;;;5093590;28;20725;-65
2022/01/23 13:05:18;;;;;;;31.55;15.10;;;7.00;99.90;;;;;;5093021;28;20192;-64
2022/01/23 13:08:07;;;;;;;24.20;12.50;;;7.00;99.90;;;;;;5094674;28;20263;-64
2022/01/23 13:13:51;;;;;;;22.00;12.50;;;7.00;99.90;;;;;;5094326;28;20643;-64
2022/01/23 13:18:43;;;;;;;21.98;11.45;;;7.00;99.90;;;;;;5094060;28;20647;-64
2022/01/23 13:32:42;;;;;;;15.13;9.48;;;7.30;99.90;;;;;;5093295;28;20180;-65
2022/01/23 13:35:08;;;;;;;15.18;8.82;;;7.40;99.90;;;;;;5090211;28;20216;-65
2022/01/23 13:37:38;;;;;;;17.98;9.55;;;7.40;99.90;;;;;;5093595;28;20190;-65
2022/01/23 13:40:15;;;;;;;18.23;9.85;;;7.40;99.90;;;;;;5093864;28;20180;-65
2022/01/23 13:42:57;;;;;;;19.35;10.00;;;7.40;99.90;;;;;;5093134;28;20215;-65
2022/01/23 14:02:19;;;;;;;8.40;4.88;;;7.30;99.90;;;;;;5092170;28;20204;-66
2022/01/23 14:04:56;;;;;;;12.13;7.28;;;7.30;99.90;;;;;;5093021;28;20176;-65
2022/01/23 14:07:24;;;;;;;5.47;3.95;;;7.30;99.90;;;;;;5091802;28;20183;-65
2022/01/23 14:09:50;;;;;;;4.47;3.15;;;7.30;99.90;;;;;;5091252;28;20694;-65
2022/01/23 14:12:18;;;;;;;6.07;3.92;;;7.30;99.90;;;;;;5093032;28;20180;-65
2022/01/23 14:14:51;;;;;;;5.82;4.07;;;7.20;99.90;;;;;;5093449;28;20555;-65
2022/01/23 14:17:17;;;;;;;13.63;6.80;;;7.30;99.90;;;;;;5092979;28;20221;-65
2022/01/23 14:20:01;;;;;;;9.15;5.70;;;7.20;99.90;;;;;;5093406;28;20174;-65
2022/01/23 14:22:33;;;;;;;5.47;3.75;;;7.20;99.90;;;;;;5092786;28;20237;-65
2022/01/23 14:25:25;;;;;;;5.97;4.38;;;7.20;99.90;;;;;;5092112;28;20184;-65
2022/01/23 14:28:05;;;;;;;10.98;4.93;;;7.10;99.90;;;;;;5089955;28;20195;-65
2022/01/23 14:30:30;;;;;;;9.25;5.20;;;7.00;99.90;;;;;;5092921;28;20245;-65
2022/01/23 14:33:05;;;;;;;9.82;6.05;;;7.00;99.90;;;;;;5092950;28;20180;-66
2022/01/23 14:35:32;;;;;;;9.75;5.68;;;6.90;99.90;;;;;;5092864;28;20205;-65
2022/01/23 14:38:10;;;;;;;11.52;6.20;;;6.90;99.90;;;;;;5091662;28;20689;-66
2022/01/23 14:40:36;;;;;;;7.28;4.38;;;6.80;99.90;;;;;;5091184;28;20554;-65
2022/01/23 14:43:08;;;;;;;7.80;4.43;;;6.80;99.90;;;;;;5092821;28;20211;-65
2022/01/23 14:45:41;;;;;;;7.28;4.10;;;6.70;99.90;;;;;;5092739;28;20230;-65
2022/01/23 14:48:08;;;;;;;6.55;4.15;;;6.70;99.90;;;;;;5092800;28;20180;-64
2022/01/23 14:50:36;;;;;;;7.68;4.05;;;6.70;99.90;;;;;;5091815;28;20180;-64
2022/01/23 14:53:17;;;;;;;6.20;4.05;;;6.70;99.90;;;;;;5092019;28;20192;-64
2022/01/23 14:55:47;;;;;;;7.38;4.70;;;6.70;99.90;;;;;;5091689;28;20187;-64
2022/01/23 14:58:14;;;;;;;6.22;3.92;;;6.60;99.90;;;;;;5092565;28;20172;-64
2022/01/23 15:00:40;;;;;;;5.43;3.33;;;6.60;99.90;;;;;;5091146;28;20234;-64
2022/01/23 15:03:07;;;;;;;6.32;3.47;;;6.50;99.90;;;;;;5091953;28;20277;-65
2022/01/23 15:05:36;;;;;;;4.57;3.35;;;6.60;99.90;;;;;;5091716;28;20200;-64
2022/01/23 15:08:05;;;;;;;4.88;3.30;;;6.60;99.90;;;;;;5091606;28;20184;-64
2022/01/23 15:10:31;;;;;;;10.73;7.75;;;6.60;99.90;;;;;;5090113;28;20208;-64
2022/01/23 15:12:56;;;;;;;5.72;3.75;;;6.50;99.90;;;;;;5091353;28;20233;-64
2022/01/23 15:15:22;;;;;;;4.28;2.97;;;6.50;99.90;;;;;;5092182;28;20175;-64
2022/01/23 15:17:47;;;;;;;5.20;2.95;;;6.50;99.90;;;;;;5092003;28;20183;-64
2022/01/23 15:20:13;;;;;;;7.63;4.57;;;6.40;99.90;;;;;;5092334;28;20172;-64
2022/01/23 15:22:39;;;;;;;5.65;3.72;;;6.30;99.90;;;;;;5090582;28;20263;-64
2022/01/23 15:25:08;;;;;;;7.55;3.65;;;6.30;99.90;;;;;;5092174;28;20179;-64
2022/01/23 15:27:34;;;;;;;5.70;3.83;;;6.30;99.90;;;;;;5091951;28;20360;-65
2022/01/23 15:30:00;;;;;;;5.47;3.63;;;6.40;99.90;;;;;;5091486;28;20266;-65
2022/01/23 15:32:25;;;;;;;6.93;3.80;;;6.40;99.90;;;;;;5091855;28;20272;-65
2022/01/23 15:34:52;;;;;;;7.18;3.92;;;6.30;99.90;;;;;;5092119;28;20663;-65
2022/01/23 15:37:18;;;;;;;6.45;4.28;;;6.30;99.90;;;;;;5091272;28;20172;-65
2022/01/23 15:39:45;;;;;;;6.72;4.20;;;6.30;99.90;;;;;;5091738;28;20389;-65
2022/01/23 15:42:12;;;;;;;12.35;5.68;;;6.30;99.90;;;;;;5090482;28;20204;-65
2022/01/23 15:44:40;;;;;;;7.53;4.75;;;6.30;99.90;;;;;;5092045;28;20183;-65
2022/01/23 15:47:06;;;;;;;6.70;4.45;;;6.30;99.90;;;;;;5091610;28;20225;-65
2022/01/23 15:49:32;;;;;;;7.88;4.78;;;6.30;99.90;;;;;;5091436;28;20234;-65
2022/01/23 15:51:57;;;;;;;9.88;5.60;;;6.20;99.90;;;;;;5091064;28;20653;-64
2022/01/23 15:54:23;;;;;;;7.40;5.22;;;6.20;99.90;;;;;;5090620;28;20643;-65
2022/01/23 15:56:51;;;;;;;9.32;5.82;;;6.20;99.90;;;;;;5089978;28;20176;-65
2022/01/23 15:59:18;;;;;;;8.18;4.95;;;6.20;99.90;;;;;;5089242;28;20220;-65
2022/01/23 16:01:46;;;;;;;8.45;4.80;;;6.20;99.90;;;;;;5090877;28;20269;-65
2022/01/23 16:04:13;;;;;;;7.35;4.70;;;6.20;99.90;;;;;;5090384;28;20573;-65
2022/01/23 16:06:39;;;;;;;8.93;5.60;;;6.20;99.90;;;;;;5090172;28;20179;-64
2022/01/23 16:09:06;;;;;;;11.35;5.57;;;6.10;99.90;;;;;;5089641;28;20208;-65
2022/01/23 16:11:31;;;;;;;8.75;5.15;;;6.10;99.90;;;;;;5089541;28;20178;-65
2022/01/23 16:13:57;;;;;;;11.02;5.28;;;6.10;99.90;;;;;;5090300;28;20579;-65
2022/01/23 16:16:25;;;;;;;12.10;6.53;;;6.10;99.90;;;;;;5089667;28;20188;-65
2022/01/23 16:18:55;;;;;;;14.50;8.73;;;6.00;99.90;;;;;;5090686;28;20532;-65